createdAt,value
2018-11-20T14:37:30.381Z,57.90
2018-11-20T14:41:04.488Z,58.60
2018-11-20T14:43:50.055Z,59.80
2018-11-20T14:46:37.152Z,59.90
2018-11-20T14:49:25.073Z,60.40
2018-11-20T14:52:12.693Z,60.20
2018-11-20T14:54:57.120Z,60.60
2018-11-20T14:57:36.186Z,61.10
2018-11-20T15:00:17.852Z,61.20
2018-11-20T15:03:05.443Z,61.70
2018-11-20T15:05:46.096Z,61.90
2018-11-20T15:08:33.628Z,61.90
2018-11-20T15:11:22.194Z,62.30
2018-11-20T15:14:09.813Z,62.50
2018-11-20T15:16:57.337Z,62.70
2018-11-20T15:19:44.939Z,63.50
2018-11-20T15:22:21.134Z,63.90
2018-11-20T15:25:09.416Z,64.10
2018-11-20T15:28:07.807Z,64.30
2018-11-20T15:30:42.450Z,64.80
2018-11-20T15:33:19.853Z,66.00
2018-11-20T15:35:56.144Z,65.20
2018-11-20T15:38:43.753Z,65.60
2018-11-20T15:41:29.737Z,65.60
2018-11-20T15:44:15.189Z,65.90
2018-11-20T15:47:02.778Z,65.90
2018-11-20T15:49:49.210Z,66.10
2018-11-20T15:52:28.631Z,67.10
2018-11-20T15:55:13.263Z,66.30
2018-11-20T15:58:00.918Z,66.70
2018-11-20T16:00:48.535Z,66.80
2018-11-20T16:03:30.910Z,66.90
2018-11-20T16:06:18.454Z,67.20
2018-11-20T16:09:04.154Z,67.50
2018-11-20T16:11:51.728Z,67.60
2018-11-20T16:14:37.061Z,67.60
2018-11-20T16:17:24.646Z,67.50
2018-11-20T16:20:12.298Z,67.70
2018-11-20T16:22:59.879Z,68.30
2018-11-20T16:25:47.731Z,68.20
2018-11-20T16:28:26.449Z,68.60
2018-11-20T16:31:16.441Z,68.60
2018-11-20T16:33:54.450Z,68.80
2018-11-20T16:36:42.024Z,68.90
2018-11-20T16:39:29.642Z,68.90
2018-11-20T16:42:17.246Z,69.30
2018-11-20T16:45:04.876Z,69.50
2018-11-20T16:47:52.144Z,69.90
2018-11-20T16:50:43.620Z,70.10
2018-11-20T16:53:31.156Z,70.30
2018-11-20T16:56:21.230Z,70.60
2018-11-20T16:59:02.429Z,70.90
2018-11-20T17:01:50.013Z,70.70
2018-11-20T17:04:37.737Z,71.00
2018-11-20T17:07:22.661Z,71.40
2018-11-20T17:10:10.964Z,71.70
2018-11-20T17:12:58.627Z,71.60
2018-11-20T17:15:46.258Z,71.70
2018-11-20T17:18:33.818Z,71.90
2018-11-20T17:21:21.582Z,72.20
2018-11-20T17:24:09.197Z,72.60
2018-11-20T17:26:56.753Z,72.40
2018-11-20T17:29:34.878Z,72.80
2018-11-20T17:32:22.418Z,72.60
2018-11-20T17:35:10.037Z,72.90
2018-11-20T17:37:58.662Z,72.70
2018-11-20T17:40:46.283Z,73.00
2018-11-20T17:43:28.617Z,73.00
2018-11-20T17:46:25.508Z,73.20
2018-11-20T17:49:13.106Z,73.30
2018-11-20T17:51:58.018Z,73.40
2018-11-20T17:54:41.497Z,73.30
2018-11-20T17:57:30.563Z,73.50
2018-11-20T18:00:18.682Z,73.60
2018-11-20T18:03:14.491Z,73.70
2018-11-20T18:06:21.718Z,73.70
2018-11-20T18:09:21.056Z,73.60
2018-11-20T18:12:10.198Z,74.00
2018-11-20T18:14:53.088Z,74.10
2018-11-20T18:17:42.039Z,74.00
2018-11-20T18:20:19.353Z,74.10
2018-11-20T18:23:17.374Z,74.20
2018-11-20T18:25:54.845Z,75.00
2018-11-20T18:28:49.125Z,74.30
2018-11-20T18:31:51.250Z,74.40
2018-11-20T18:35:12.758Z,74.40
2018-11-20T18:38:45.852Z,74.40
2018-11-20T18:42:14.411Z,74.70
2018-11-20T18:45:02.137Z,74.60
2018-11-20T18:52:45.118Z,74.80
2018-11-20T18:55:36.536Z,74.90
2018-11-20T18:58:21.180Z,74.60
2018-11-20T19:01:08.873Z,74.60
2018-11-20T19:03:56.450Z,74.80
2018-11-20T19:06:44.106Z,75.00
2018-11-20T19:09:31.638Z,75.00
2018-11-20T19:12:19.276Z,74.90
2018-11-20T19:15:03.877Z,75.30
2018-11-20T19:17:51.532Z,75.20
2018-11-20T19:20:28.632Z,75.50
2018-11-20T19:23:07.337Z,75.30
2018-11-20T19:26:15.388Z,75.10
2018-11-20T19:29:02.927Z,75.40
2018-11-20T19:31:53.181Z,75.40
2018-11-20T19:34:38.247Z,75.30
2018-11-20T19:37:25.989Z,75.60
2018-11-20T19:40:13.127Z,75.70
2018-11-20T19:43:00.971Z,75.70
2018-11-20T19:45:48.611Z,75.60
2018-11-20T19:49:01.074Z,76.00
2018-11-20T19:52:10.153Z,75.80
2018-11-20T19:55:44.385Z,76.00
2018-11-20T19:58:44.035Z,75.80
2018-11-20T20:01:31.761Z,75.80
2018-11-20T20:04:19.962Z,75.60
2018-11-20T20:07:08.298Z,76.00
2018-11-20T20:10:11.988Z,76.00
2018-11-20T20:12:53.777Z,76.00
2018-11-20T20:15:41.461Z,76.00
2018-11-20T20:18:29.046Z,76.70
2018-11-20T20:21:16.698Z,75.90
2018-11-20T20:24:04.342Z,75.90
2018-11-20T20:26:51.946Z,75.70
2018-11-20T20:29:39.591Z,75.70
2018-11-20T20:32:18.965Z,76.20
2018-11-20T20:35:06.610Z,76.50
2018-11-20T20:37:54.241Z,76.60
2018-11-20T20:40:41.818Z,76.60
2018-11-20T20:43:29.371Z,76.60
2018-11-20T20:46:16.967Z,76.80
2018-11-20T20:49:12.584Z,76.70
2018-11-20T20:52:00.301Z,76.90
2018-11-20T20:54:47.913Z,76.80
2018-11-20T20:57:38.986Z,76.60
2018-11-20T21:00:27.266Z,77.10
2018-11-20T21:03:14.858Z,76.50
2018-11-20T21:06:01.881Z,76.70
2018-11-20T21:08:49.437Z,76.70
2018-11-20T21:11:33.398Z,76.60
2018-11-20T21:14:19.491Z,76.60
2018-11-20T21:17:07.133Z,76.70
2018-11-20T21:19:54.681Z,77.40
2018-11-20T21:22:42.213Z,76.80
2018-11-20T21:25:29.843Z,77.40
2018-11-20T21:28:17.492Z,76.80
2018-11-20T21:30:53.184Z,76.80
2018-11-20T21:33:29.913Z,76.90
2018-11-20T21:36:12.980Z,77.60
2018-11-20T21:39:00.548Z,76.80
2018-11-20T21:41:48.161Z,76.40
2018-11-20T21:44:34.202Z,76.50
2018-11-20T21:47:21.825Z,76.80
2018-11-20T21:50:09.430Z,76.70
2018-11-20T21:52:57.021Z,77.00
2018-11-20T21:55:44.631Z,77.00
2018-11-20T21:58:32.199Z,77.10
2018-11-20T22:01:22.436Z,77.20
2018-11-20T22:04:10.038Z,77.40
2018-11-20T22:06:57.046Z,77.40
2018-11-20T22:09:44.633Z,77.40
2018-11-20T22:12:32.178Z,77.40
2018-11-20T22:15:19.839Z,77.20
2018-11-20T22:18:07.348Z,77.40
2018-11-20T22:20:54.928Z,77.20
2018-11-20T22:23:41.877Z,77.20
2018-11-20T22:26:27.612Z,77.30
2018-11-20T22:29:15.156Z,77.50
2018-11-20T22:32:02.826Z,77.20
2018-11-20T22:34:50.476Z,77.50
2018-11-20T22:37:25.535Z,77.30
2018-11-20T22:40:13.155Z,77.10
2018-11-20T22:43:00.728Z,77.10
2018-11-20T22:45:48.262Z,77.10
2018-11-20T22:48:35.832Z,77.30
2018-11-20T22:51:23.428Z,77.50
2018-11-20T22:53:59.418Z,77.40
2018-11-20T22:56:44.773Z,77.30
2018-11-20T22:59:19.255Z,77.40
2018-11-20T23:01:57.226Z,77.70
2018-11-20T23:05:03.795Z,77.70
2018-11-20T23:07:51.305Z,77.60
2018-11-20T23:10:20.847Z,77.40
2018-11-20T23:12:49.527Z,77.40
2018-11-20T23:15:18.044Z,77.40
2018-11-20T23:17:46.419Z,77.40
2018-11-20T23:20:15.201Z,77.30
2018-11-20T23:22:44.136Z,77.60
2018-11-20T23:25:13.655Z,77.20
2018-11-20T23:27:42.113Z,77.10
2018-11-20T23:30:12.231Z,77.10
2018-11-20T23:32:43.903Z,76.90
2018-11-20T23:35:13.194Z,76.90
2018-11-20T23:37:44.652Z,76.70
2018-11-20T23:40:13.993Z,76.70
2018-11-20T23:42:42.387Z,76.60
2018-11-20T23:45:13.174Z,76.70
2018-11-20T23:47:41.669Z,76.60
2018-11-20T23:50:11.801Z,76.70
2018-11-20T23:52:40.323Z,76.70
2018-11-20T23:55:11.309Z,76.50
2018-11-20T23:57:39.740Z,76.60
